createdAt,value
2023-03-06T00:03:31.784Z,61.10
2023-03-06T00:13:33.629Z,60.50
2023-03-06T00:23:31.867Z,58.00
2023-03-06T00:33:33.172Z,60.80
2023-03-06T00:43:32.218Z,61.70
2023-03-06T00:53:34.368Z,59.10
2023-03-06T01:03:32.603Z,55.10
2023-03-06T01:13:32.897Z,58.90
2023-03-06T01:23:33.713Z,63.40
2023-03-06T01:33:33.274Z,58.50
2023-03-06T01:43:33.354Z,51.80
2023-03-06T01:53:33.737Z,64.10
2023-03-06T02:03:33.784Z,58.40
2023-03-06T02:13:34.221Z,55.40
2023-03-06T02:23:34.280Z,59.60
2023-03-06T02:33:34.619Z,64.50
2023-03-06T02:43:34.679Z,59.60
2023-03-06T02:53:34.969Z,63.90
2023-03-06T03:03:35.022Z,64.40
2023-03-06T03:13:35.419Z,54.90
2023-03-06T03:23:35.455Z,59.50
2023-03-06T03:33:35.786Z,63.60
2023-03-06T03:43:35.826Z,68.50
2023-03-06T03:53:37.182Z,66.50
2023-03-06T04:03:36.232Z,62.00
2023-03-06T04:13:36.532Z,55.60
2023-03-06T04:23:36.551Z,62.50
2023-03-06T04:33:36.909Z,54.90
2023-03-06T04:43:36.933Z,60.20
2023-03-06T04:53:37.267Z,55.40
2023-03-06T05:03:37.300Z,61.40
2023-03-06T05:13:37.747Z,63.90
2023-03-06T05:23:37.802Z,67.90
2023-03-06T05:33:38.209Z,70.10
2023-03-06T05:43:38.245Z,68.20
2023-03-06T05:53:38.715Z,60.60
2023-03-06T06:03:38.604Z,62.00
2023-03-06T06:13:41.929Z,68.90
2023-03-06T06:23:38.760Z,64.50
2023-03-06T06:33:39.014Z,74.10
2023-03-06T06:43:39.249Z,68.40
2023-03-06T06:53:39.495Z,66.50
2023-03-06T07:03:39.598Z,69.20
2023-03-06T07:13:39.659Z,70.40
2023-03-06T07:23:39.904Z,71.60
2023-03-06T07:33:40.236Z,77.40
2023-03-06T07:43:40.263Z,72.90
2023-03-06T07:53:40.605Z,64.80
2023-03-06T08:03:40.649Z,59.00
2023-03-06T08:13:40.786Z,71.60
2023-03-06T08:23:40.820Z,61.90
2023-03-06T08:33:41.135Z,66.00
2023-03-06T08:43:41.182Z,67.50
2023-03-06T08:53:43.645Z,68.60
2023-03-06T09:03:41.510Z,75.90
2023-03-06T09:13:41.873Z,72.30
2023-03-06T09:23:41.928Z,76.60
2023-03-06T09:33:42.255Z,76.60
2023-03-06T09:43:42.294Z,65.10
2023-03-06T09:53:42.630Z,65.40
2023-03-06T10:03:42.658Z,66.20
2023-03-06T10:13:42.991Z,61.90
2023-03-06T10:23:43.023Z,67.40
2023-03-06T10:33:43.365Z,64.30
2023-03-06T10:43:43.421Z,57.00
2023-03-06T10:53:43.749Z,45.60
2023-03-06T11:03:43.780Z,31.30
2023-03-06T11:13:44.209Z,32.80
2023-03-06T11:23:44.239Z,45.90
2023-03-06T11:33:44.594Z,21.20
2023-03-06T11:43:44.631Z,25.40
2023-03-06T11:53:44.951Z,21.70
2023-03-06T12:03:44.986Z,23.10
2023-03-06T12:13:45.316Z,23.60
2023-03-06T12:23:45.330Z,22.90
2023-03-06T12:33:45.585Z,24.10
2023-03-06T12:43:45.809Z,28.30
2023-03-06T12:53:48.067Z,25.70
2023-03-06T13:03:46.301Z,24.60
2023-03-06T13:13:47.683Z,24.70
2023-03-06T13:23:46.709Z,24.10
2023-03-06T13:33:47.054Z,25.00
2023-03-06T13:43:47.088Z,11.00
2023-03-06T13:53:47.381Z,23.80
2023-03-06T14:03:47.428Z,21.70
2023-03-06T14:13:47.967Z,21.40
2023-03-06T14:23:47.805Z,20.90
2023-03-06T14:33:48.210Z,22.00
2023-03-06T14:43:48.277Z,21.60
2023-03-06T14:53:48.582Z,23.40
2023-03-06T15:03:49.621Z,22.60
2023-03-06T15:13:48.945Z,23.00
2023-03-06T15:23:49.066Z,21.30
2023-03-06T15:33:49.202Z,23.50
2023-03-06T15:43:49.250Z,24.80
2023-03-06T15:53:50.255Z,20.00
2023-03-06T16:03:49.683Z,24.50
2023-03-06T16:13:49.768Z,21.20
2023-03-06T16:23:50.075Z,21.40
2023-03-06T16:33:52.161Z,21.00
2023-03-06T16:43:50.411Z,23.00
2023-03-06T16:53:50.700Z,21.60
2023-03-06T17:03:50.968Z,23.40
2023-03-06T17:13:51.162Z,21.90
2023-03-06T17:23:51.113Z,27.20
2023-03-06T17:33:51.706Z,21.80
2023-03-06T17:43:51.572Z,23.80
2023-03-06T17:53:52.077Z,22.80
2023-03-06T18:03:51.982Z,23.70
2023-03-06T18:13:54.169Z,26.00
2023-03-06T18:23:52.196Z,27.30
2023-03-06T18:33:52.571Z,19.00
2023-03-06T18:43:52.770Z,23.80
2023-03-06T18:53:53.091Z,46.10
2023-03-06T19:03:53.236Z,43.80
2023-03-06T19:14:08.190Z,18.40
2023-03-06T19:23:59.621Z,17.30
2023-03-06T19:33:53.643Z,18.20
2023-03-06T19:43:53.899Z,20.50
2023-03-06T19:53:58.125Z,24.80
2023-03-06T20:03:54.166Z,23.80
2023-03-06T20:13:54.489Z,17.40
2023-03-06T20:23:54.490Z,17.10
2023-03-06T20:33:55.777Z,46.60
2023-03-06T20:43:54.946Z,20.50
2023-03-06T20:53:55.339Z,18.20
2023-03-06T21:03:55.252Z,16.10
2023-03-06T21:13:59.067Z,33.30
2023-03-06T21:23:55.779Z,16.40
2023-03-06T21:33:55.797Z,16.50
2023-03-06T21:43:55.837Z,16.10
2023-03-06T21:53:57.080Z,20.10
2023-03-06T22:03:56.325Z,21.30
2023-03-06T22:13:56.622Z,17.70
2023-03-06T22:23:56.858Z,17.70
2023-03-06T22:33:57.102Z,21.50
2023-03-06T22:43:57.329Z,19.50
2023-03-06T22:53:58.596Z,20.00
2023-03-06T23:03:57.862Z,17.70
2023-03-06T23:13:57.939Z,20.00
2023-03-06T23:23:58.184Z,18.90
2023-03-06T23:33:58.529Z,20.90
2023-03-06T23:43:58.558Z,17.10
2023-03-06T23:53:58.898Z,19.90
